sensor_id;sensor_type;location;lat;lon;timestamp;temperature;humidity
22956;DHT22;40888;48.148;11.526;2024-03-06T00:00:00;6.40;99.90
22956;DHT22;40888;48.148;11.526;2024-03-06T00:02:26;6.40;99.90
22956;DHT22;40888;48.148;11.526;2024-03-06T00:04:51;6.40;99.90
22956;DHT22;40888;48.148;11.526;2024-03-06T00:07:17;6.40;99.90
22956;DHT22;40888;48.148;11.526;2024-03-06T00:09:43;6.40;99.90
22956;DHT22;40888;48.148;11.526;2024-03-06T00:12:08;6.40;99.90
22956;DHT22;40888;48.148;11.526;2024-03-06T00:14:35;6.30;99.90
22956;DHT22;40888;48.148;11.526;2024-03-06T00:17:02;6.40;99.90
22956;DHT22;40888;48.148;11.526;2024-03-06T00:19:30;6.30;99.90
22956;DHT22;40888;48.148;11.526;2024-03-06T00:21:56;6.40;99.90
22956;DHT22;40888;48.148;11.526;2024-03-06T00:24:22;6.30;99.90
22956;DHT22;40888;48.148;11.526;2024-03-06T00:26:48;6.30;99.90
22956;DHT22;40888;48.148;11.526;2024-03-06T00:29:14;6.30;99.90
22956;DHT22;40888;48.148;11.526;2024-03-06T00:31:44;6.30;99.90
22956;DHT22;40888;48.148;11.526;2024-03-06T00:34:10;6.30;99.90
22956;DHT22;40888;48.148;11.526;2024-03-06T00:36:39;6.30;99.90
22956;DHT22;40888;48.148;11.526;2024-03-06T00:39:05;6.20;99.90
22956;DHT22;40888;48.148;11.526;2024-03-06T00:41:31;6.30;99.90
22956;DHT22;40888;48.148;11.526;2024-03-06T00:43:57;6.20;99.90
22956;DHT22;40888;48.148;11.526;2024-03-06T00:46:23;6.20;99.90
22956;DHT22;40888;48.148;11.526;2024-03-06T00:48:48;6.20;99.90
22956;DHT22;40888;48.148;11.526;2024-03-06T00:51:14;6.10;99.90
22956;DHT22;40888;48.148;11.526;2024-03-06T00:53:40;6.20;99.90
22956;DHT22;40888;48.148;11.526;2024-03-06T00:56:07;6.20;99.90
22956;DHT22;40888;48.148;11.526;2024-03-06T00:58:33;6.20;99.90
22956;DHT22;40888;48.148;11.526;2024-03-06T01:00:59;6.20;99.90
22956;DHT22;40888;48.148;11.526;2024-03-06T01:03:24;6.20;99.90
22956;DHT22;40888;48.148;11.526;2024-03-06T01:05:50;6.20;99.90
22956;DHT22;40888;48.148;11.526;2024-03-06T01:08:19;6.20;99.90
22956;DHT22;40888;48.148;11.526;2024-03-06T01:10:45;6.10;99.90
22956;DHT22;40888;48.148;11.526;2024-03-06T01:13:10;6.10;99.90
22956;DHT22;40888;48.148;11.526;2024-03-06T01:15:37;6.20;99.90
22956;DHT22;40888;48.148;11.526;2024-03-06T01:18:03;6.20;99.90
22956;DHT22;40888;48.148;11.526;2024-03-06T01:20:29;6.20;99.90
22956;DHT22;40888;48.148;11.526;2024-03-06T01:22:55;6.10;99.90
22956;DHT22;40888;48.148;11.526;2024-03-06T01:25:21;6.20;99.90
22956;DHT22;40888;48.148;11.526;2024-03-06T01:27:48;6.10;99.90
22956;DHT22;40888;48.148;11.526;2024-03-06T01:30:14;6.10;99.90
22956;DHT22;40888;48.148;11.526;2024-03-06T01:32:40;6.10;99.90
22956;DHT22;40888;48.148;11.526;2024-03-06T01:35:06;6.10;99.90
22956;DHT22;40888;48.148;11.526;2024-03-06T01:37:32;6.10;99.90
22956;DHT22;40888;48.148;11.526;2024-03-06T01:39:58;6.20;99.90
22956;DHT22;40888;48.148;11.526;2024-03-06T01:42:24;6.10;99.90
22956;DHT22;40888;48.148;11.526;2024-03-06T01:44:50;6.20;99.90
22956;DHT22;40888;48.148;11.526;2024-03-06T01:47:15;6.20;99.90
22956;DHT22;40888;48.148;11.526;2024-03-06T01:49:41;6.20;99.90
22956;DHT22;40888;48.148;11.526;2024-03-06T01:52:11;6.20;99.90
22956;DHT22;40888;48.148;11.526;2024-03-06T01:54:38;6.20;99.90
22956;DHT22;40888;48.148;11.526;2024-03-06T01:57:06;6.20;99.90
22956;DHT22;40888;48.148;11.526;2024-03-06T01:59:33;6.20;99.90
22956;DHT22;40888;48.148;11.526;2024-03-06T02:02:00;6.20;99.90
22956;DHT22;40888;48.148;11.526;2024-03-06T02:04:27;6.20;99.90
22956;DHT22;40888;48.148;11.526;2024-03-06T02:06:54;6.20;99.90
22956;DHT22;40888;48.148;11.526;2024-03-06T02:09:20;6.20;99.90
22956;DHT22;40888;48.148;11.526;2024-03-06T02:11:46;6.20;99.90
22956;DHT22;40888;48.148;11.526;2024-03-06T02:14:11;6.20;99.90
22956;DHT22;40888;48.148;11.526;2024-03-06T02:16:38;6.30;99.90
22956;DHT22;40888;48.148;11.526;2024-03-06T02:19:07;6.20;99.90
22956;DHT22;40888;48.148;11.526;2024-03-06T02:21:34;6.20;99.90
22956;DHT22;40888;48.148;11.526;2024-03-06T02:23:59;6.30;99.90
22956;DHT22;40888;48.148;11.526;2024-03-06T02:26:26;6.30;99.90
22956;DHT22;40888;48.148;11.526;2024-03-06T02:28:53;6.30;99.90
22956;DHT22;40888;48.148;11.526;2024-03-06T02:31:21;6.30;99.90
22956;DHT22;40888;48.148;11.526;2024-03-06T02:33:47;6.30;99.90
22956;DHT22;40888;48.148;11.526;2024-03-06T02:36:22;6.30;99.90
22956;DHT22;40888;48.148;11.526;2024-03-06T02:38:48;6.30;99.90
22956;DHT22;40888;48.148;11.526;2024-03-06T02:41:14;6.40;99.90
22956;DHT22;40888;48.148;11.526;2024-03-06T02:43:41;6.30;99.90
22956;DHT22;40888;48.148;11.526;2024-03-06T02:46:08;6.30;99.90
22956;DHT22;40888;48.148;11.526;2024-03-06T02:48:33;6.40;99.90
22956;DHT22;40888;48.148;11.526;2024-03-06T02:50:59;6.40;99.90
22956;DHT22;40888;48.148;11.526;2024-03-06T02:53:25;6.40;99.90
22956;DHT22;40888;48.148;11.526;2024-03-06T02:55:51;6.40;99.90
22956;DHT22;40888;48.148;11.526;2024-03-06T02:58:16;6.40;99.90
22956;DHT22;40888;48.148;11.526;2024-03-06T03:00:43;6.40;99.90
22956;DHT22;40888;48.148;11.526;2024-03-06T03:03:09;6.30;99.90
22956;DHT22;40888;48.148;11.526;2024-03-06T03:05:38;6.30;99.90
22956;DHT22;40888;48.148;11.526;2024-03-06T03:08:03;6.30;99.90
22956;DHT22;40888;48.148;11.526;2024-03-06T03:10:31;6.30;99.90
22956;DHT22;40888;48.148;11.526;2024-03-06T03:12:56;6.30;99.90
22956;DHT22;40888;48.148;11.526;2024-03-06T03:15:22;6.40;99.90
22956;DHT22;40888;48.148;11.526;2024-03-06T03:17:48;6.40;99.90
22956;DHT22;40888;48.148;11.526;2024-03-06T03:20:13;6.30;99.90
22956;DHT22;40888;48.148;11.526;2024-03-06T03:22:42;6.30;99.90
22956;DHT22;40888;48.148;11.526;2024-03-06T03:25:09;6.30;99.90
22956;DHT22;40888;48.148;11.526;2024-03-06T03:27:36;6.40;99.90
22956;DHT22;40888;48.148;11.526;2024-03-06T03:30:02;6.30;99.90
22956;DHT22;40888;48.148;11.526;2024-03-06T03:32:28;6.30;99.90
22956;DHT22;40888;48.148;11.526;2024-03-06T03:34:54;6.10;99.90
22956;DHT22;40888;48.148;11.526;2024-03-06T03:37:20;6.00;99.90
22956;DHT22;40888;48.148;11.526;2024-03-06T03:39:46;5.90;99.90
22956;DHT22;40888;48.148;11.526;2024-03-06T03:42:11;5.80;99.90
22956;DHT22;40888;48.148;11.526;2024-03-06T03:44:37;5.80;99.90
22956;DHT22;40888;48.148;11.526;2024-03-06T03:47:03;5.80;99.90
22956;DHT22;40888;48.148;11.526;2024-03-06T03:49:28;5.80;99.90
22956;DHT22;40888;48.148;11.526;2024-03-06T03:51:54;5.80;99.90
22956;DHT22;40888;48.148;11.526;2024-03-06T03:54:20;5.80;99.90
22956;DHT22;40888;48.148;11.526;2024-03-06T03:56:46;5.70;99.90
22956;DHT22;40888;48.148;11.526;2024-03-06T03:59:11;5.70;99.90
22956;DHT22;40888;48.148;11.526;2024-03-06T04:01:37;5.60;99.90
22956;DHT22;40888;48.148;11.526;2024-03-06T04:04:03;5.50;99.90
22956;DHT22;40888;48.148;11.526;2024-03-06T04:06:29;5.60;99.90
22956;DHT22;40888;48.148;11.526;2024-03-06T04:08:54;5.60;99.90
22956;DHT22;40888;48.148;11.526;2024-03-06T04:11:20;5.60;99.90
22956;DHT22;40888;48.148;11.526;2024-03-06T04:13:46;5.60;99.90
22956;DHT22;40888;48.148;11.526;2024-03-06T04:16:16;5.60;99.90
22956;DHT22;40888;48.148;11.526;2024-03-06T04:18:43;5.60;99.90
22956;DHT22;40888;48.148;11.526;2024-03-06T04:21:08;5.60;99.90
22956;DHT22;40888;48.148;11.526;2024-03-06T04:23:36;5.60;99.90
22956;DHT22;40888;48.148;11.526;2024-03-06T04:26:02;5.60;99.90
22956;DHT22;40888;48.148;11.526;2024-03-06T04:28:29;5.50;99.90
22956;DHT22;40888;48.148;11.526;2024-03-06T04:30:55;5.50;99.90
22956;DHT22;40888;48.148;11.526;2024-03-06T04:33:20;5.50;99.90
22956;DHT22;40888;48.148;11.526;2024-03-06T04:35:46;5.40;99.90
22956;DHT22;40888;48.148;11.526;2024-03-06T04:38:12;5.40;99.90
22956;DHT22;40888;48.148;11.526;2024-03-06T04:40:37;5.40;99.90
22956;DHT22;40888;48.148;11.526;2024-03-06T04:43:03;5.40;99.90
22956;DHT22;40888;48.148;11.526;2024-03-06T04:45:29;5.50;99.90
22956;DHT22;40888;48.148;11.526;2024-03-06T04:47:55;5.50;99.90
22956;DHT22;40888;48.148;11.526;2024-03-06T04:50:21;5.50;99.90
22956;DHT22;40888;48.148;11.526;2024-03-06T04:52:46;5.50;99.90
22956;DHT22;40888;48.148;11.526;2024-03-06T04:55:12;5.50;99.90
22956;DHT22;40888;48.148;11.526;2024-03-06T04:57:43;5.40;99.90
22956;DHT22;40888;48.148;11.526;2024-03-06T05:00:10;5.40;99.90
22956;DHT22;40888;48.148;11.526;2024-03-06T05:02:36;5.40;99.90
22956;DHT22;40888;48.148;11.526;2024-03-06T05:05:04;5.40;99.90
22956;DHT22;40888;48.148;11.526;2024-03-06T05:07:31;5.40;99.90
22956;DHT22;40888;48.148;11.526;2024-03-06T05:10:00;5.30;99.90
22956;DHT22;40888;48.148;11.526;2024-03-06T05:12:27;5.30;99.90
22956;DHT22;40888;48.148;11.526;2024-03-06T05:14:53;5.20;99.90
22956;DHT22;40888;48.148;11.526;2024-03-06T05:17:19;5.20;99.90
22956;DHT22;40888;48.148;11.526;2024-03-06T05:19:49;5.10;99.90
22956;DHT22;40888;48.148;11.526;2024-03-06T05:22:18;5.10;99.90
22956;DHT22;40888;48.148;11.526;2024-03-06T05:24:44;5.10;99.90
22956;DHT22;40888;48.148;11.526;2024-03-06T05:27:10;5.10;99.90
22956;DHT22;40888;48.148;11.526;2024-03-06T05:29:38;5.00;99.90
22956;DHT22;40888;48.148;11.526;2024-03-06T05:32:05;5.00;99.90
22956;DHT22;40888;48.148;11.526;2024-03-06T05:34:33;5.00;99.90
22956;DHT22;40888;48.148;11.526;2024-03-06T05:36:59;5.10;99.90
22956;DHT22;40888;48.148;11.526;2024-03-06T05:39:25;5.10;99.90
22956;DHT22;40888;48.148;11.526;2024-03-06T05:41:51;5.00;99.90
22956;DHT22;40888;48.148;11.526;2024-03-06T05:44:17;5.10;99.90
22956;DHT22;40888;48.148;11.526;2024-03-06T05:46:42;5.00;99.90
22956;DHT22;40888;48.148;11.526;2024-03-06T05:49:08;5.00;99.90
22956;DHT22;40888;48.148;11.526;2024-03-06T05:51:34;5.00;99.90
22956;DHT22;40888;48.148;11.526;2024-03-06T05:53:59;4.90;99.90
22956;DHT22;40888;48.148;11.526;2024-03-06T05:56:25;4.80;99.90
22956;DHT22;40888;48.148;11.526;2024-03-06T05:58:50;4.80;99.90
22956;DHT22;40888;48.148;11.526;2024-03-06T06:01:16;4.90;99.90
22956;DHT22;40888;48.148;11.526;2024-03-06T06:03:49;4.80;99.90
22956;DHT22;40888;48.148;11.526;2024-03-06T06:06:18;4.80;99.90
22956;DHT22;40888;48.148;11.526;2024-03-06T06:08:46;4.80;99.90
22956;DHT22;40888;48.148;11.526;2024-03-06T06:11:12;4.90;99.90
22956;DHT22;40888;48.148;11.526;2024-03-06T06:13:38;4.90;99.90
22956;DHT22;40888;48.148;11.526;2024-03-06T06:16:07;4.80;99.90
22956;DHT22;40888;48.148;11.526;2024-03-06T06:18:33;4.80;99.90
22956;DHT22;40888;48.148;11.526;2024-03-06T06:20:59;4.80;99.90
22956;DHT22;40888;48.148;11.526;2024-03-06T06:23:25;4.80;99.90
22956;DHT22;40888;48.148;11.526;2024-03-06T06:25:51;4.90;99.90
22956;DHT22;40888;48.148;11.526;2024-03-06T06:28:17;4.90;99.90
22956;DHT22;40888;48.148;11.526;2024-03-06T06:30:42;4.80;99.90
22956;DHT22;40888;48.148;11.526;2024-03-06T06:33:08;4.80;99.90
22956;DHT22;40888;48.148;11.526;2024-03-06T06:35:34;4.80;99.90
22956;DHT22;40888;48.148;11.526;2024-03-06T06:38:01;4.80;99.90
22956;DHT22;40888;48.148;11.526;2024-03-06T06:40:27;4.90;99.90
22956;DHT22;40888;48.148;11.526;2024-03-06T06:42:53;4.80;99.90
22956;DHT22;40888;48.148;11.526;2024-03-06T06:45:20;4.80;99.90
22956;DHT22;40888;48.148;11.526;2024-03-06T06:47:49;4.80;99.90
22956;DHT22;40888;48.148;11.526;2024-03-06T06:50:15;4.80;99.90
22956;DHT22;40888;48.148;11.526;2024-03-06T06:52:41;4.70;99.90
22956;DHT22;40888;48.148;11.526;2024-03-06T06:55:07;4.80;99.90
22956;DHT22;40888;48.148;11.526;2024-03-06T06:57:37;4.70;99.90
22956;DHT22;40888;48.148;11.526;2024-03-06T07:00:05;4.60;99.90
22956;DHT22;40888;48.148;11.526;2024-03-06T07:02:40;4.60;99.90
22956;DHT22;40888;48.148;11.526;2024-03-06T07:05:07;4.60;99.90
22956;DHT22;40888;48.148;11.526;2024-03-06T07:07:34;4.50;99.90
22956;DHT22;40888;48.148;11.526;2024-03-06T07:10:00;4.60;99.90
22956;DHT22;40888;48.148;11.526;2024-03-06T07:12:26;4.50;99.90
22956;DHT22;40888;48.148;11.526;2024-03-06T07:14:52;4.60;99.90
22956;DHT22;40888;48.148;11.526;2024-03-06T07:17:17;4.70;99.90
22956;DHT22;40888;48.148;11.526;2024-03-06T07:19:43;4.70;99.90
22956;DHT22;40888;48.148;11.526;2024-03-06T07:22:09;4.70;99.90
22956;DHT22;40888;48.148;11.526;2024-03-06T07:24:34;4.70;99.90
22956;DHT22;40888;48.148;11.526;2024-03-06T07:27:00;4.70;99.90
22956;DHT22;40888;48.148;11.526;2024-03-06T07:29:27;4.70;99.90
22956;DHT22;40888;48.148;11.526;2024-03-06T07:31:53;4.60;99.90
22956;DHT22;40888;48.148;11.526;2024-03-06T07:34:19;4.60;99.90
22956;DHT22;40888;48.148;11.526;2024-03-06T07:36:47;4.60;99.90
22956;DHT22;40888;48.148;11.526;2024-03-06T07:39:15;4.50;99.90
22956;DHT22;40888;48.148;11.526;2024-03-06T07:41:41;4.50;99.90
22956;DHT22;40888;48.148;11.526;2024-03-06T07:44:08;4.50;99.90
22956;DHT22;40888;48.148;11.526;2024-03-06T07:46:34;4.40;99.90
22956;DHT22;40888;48.148;11.526;2024-03-06T07:49:00;4.40;99.90
22956;DHT22;40888;48.148;11.526;2024-03-06T07:51:28;4.50;99.90
22956;DHT22;40888;48.148;11.526;2024-03-06T07:53:55;4.60;99.90
22956;DHT22;40888;48.148;11.526;2024-03-06T07:56:21;4.60;99.90
22956;DHT22;40888;48.148;11.526;2024-03-06T07:58:47;4.60;99.90
22956;DHT22;40888;48.148;11.526;2024-03-06T08:01:12;4.50;99.90
22956;DHT22;40888;48.148;11.526;2024-03-06T08:03:39;4.60;99.90
22956;DHT22;40888;48.148;11.526;2024-03-06T08:06:09;4.60;99.90
22956;DHT22;40888;48.148;11.526;2024-03-06T08:08:40;4.50;99.90
22956;DHT22;40888;48.148;11.526;2024-03-06T08:11:06;4.60;99.90
22956;DHT22;40888;48.148;11.526;2024-03-06T08:13:32;4.60;99.90
22956;DHT22;40888;48.148;11.526;2024-03-06T08:15:57;4.50;99.90
22956;DHT22;40888;48.148;11.526;2024-03-06T08:18:23;4.60;99.90
22956;DHT22;40888;48.148;11.526;2024-03-06T08:20:48;4.60;99.90
22956;DHT22;40888;48.148;11.526;2024-03-06T08:23:14;4.70;99.90
22956;DHT22;40888;48.148;11.526;2024-03-06T08:25:40;4.70;99.90
22956;DHT22;40888;48.148;11.526;2024-03-06T08:28:05;4.70;99.90
22956;DHT22;40888;48.148;11.526;2024-03-06T08:30:31;4.70;99.90
22956;DHT22;40888;48.148;11.526;2024-03-06T08:32:57;4.70;99.90
22956;DHT22;40888;48.148;11.526;2024-03-06T08:35:23;4.70;99.90
22956;DHT22;40888;48.148;11.526;2024-03-06T08:37:50;4.70;99.90
22956;DHT22;40888;48.148;11.526;2024-03-06T08:40:17;4.70;99.90
22956;DHT22;40888;48.148;11.526;2024-03-06T08:42:49;4.80;99.90
22956;DHT22;40888;48.148;11.526;2024-03-06T08:45:16;4.80;99.90
22956;DHT22;40888;48.148;11.526;2024-03-06T08:47:44;4.80;99.90
22956;DHT22;40888;48.148;11.526;2024-03-06T08:50:10;4.80;99.90
22956;DHT22;40888;48.148;11.526;2024-03-06T08:52:37;4.70;99.90
22956;DHT22;40888;48.148;11.526;2024-03-06T08:55:03;4.70;99.90
22956;DHT22;40888;48.148;11.526;2024-03-06T08:57:32;4.60;99.90
22956;DHT22;40888;48.148;11.526;2024-03-06T08:59:59;4.70;99.90
22956;DHT22;40888;48.148;11.526;2024-03-06T09:02:24;4.70;99.90
22956;DHT22;40888;48.148;11.526;2024-03-06T09:04:51;4.80;99.90
22956;DHT22;40888;48.148;11.526;2024-03-06T09:07:17;4.80;99.90
22956;DHT22;40888;48.148;11.526;2024-03-06T09:09:43;4.80;99.90
22956;DHT22;40888;48.148;11.526;2024-03-06T09:12:10;4.90;99.90
22956;DHT22;40888;48.148;11.526;2024-03-06T09:14:37;4.90;99.90
22956;DHT22;40888;48.148;11.526;2024-03-06T09:17:03;4.80;99.90
22956;DHT22;40888;48.148;11.526;2024-03-06T09:19:30;4.80;99.90
22956;DHT22;40888;48.148;11.526;2024-03-06T09:21:55;4.80;99.90
22956;DHT22;40888;48.148;11.526;2024-03-06T09:24:22;4.80;99.90
22956;DHT22;40888;48.148;11.526;2024-03-06T09:26:49;4.90;99.90
22956;DHT22;40888;48.148;11.526;2024-03-06T09:29:15;4.80;99.90
22956;DHT22;40888;48.148;11.526;2024-03-06T09:31:41;4.80;99.90
22956;DHT22;40888;48.148;11.526;2024-03-06T09:34:07;4.80;99.90
22956;DHT22;40888;48.148;11.526;2024-03-06T09:36:36;4.80;99.90
22956;DHT22;40888;48.148;11.526;2024-03-06T09:39:02;4.70;99.90
22956;DHT22;40888;48.148;11.526;2024-03-06T09:41:30;4.80;99.90
22956;DHT22;40888;48.148;11.526;2024-03-06T09:43:57;4.80;99.90
22956;DHT22;40888;48.148;11.526;2024-03-06T09:46:22;4.70;99.90
22956;DHT22;40888;48.148;11.526;2024-03-06T09:48:51;4.70;99.90
22956;DHT22;40888;48.148;11.526;2024-03-06T09:51:17;4.70;99.90
22956;DHT22;40888;48.148;11.526;2024-03-06T09:53:42;4.80;99.90
22956;DHT22;40888;48.148;11.526;2024-03-06T09:56:09;4.80;99.90
22956;DHT22;40888;48.148;11.526;2024-03-06T09:58:38;4.90;99.90
22956;DHT22;40888;48.148;11.526;2024-03-06T10:01:05;5.00;99.90
22956;DHT22;40888;48.148;11.526;2024-03-06T10:03:33;5.00;99.90
22956;DHT22;40888;48.148;11.526;2024-03-06T10:06:00;5.00;99.90
22956;DHT22;40888;48.148;11.526;2024-03-06T10:08:26;5.00;99.90
22956;DHT22;40888;48.148;11.526;2024-03-06T10:10:53;5.00;99.90
22956;DHT22;40888;48.148;11.526;2024-03-06T10:13:28;5.00;99.90
22956;DHT22;40888;48.148;11.526;2024-03-06T10:15:58;5.00;99.90
22956;DHT22;40888;48.148;11.526;2024-03-06T10:18:27;5.00;99.90
22956;DHT22;40888;48.148;11.526;2024-03-06T10:20:53;5.00;99.90
22956;DHT22;40888;48.148;11.526;2024-03-06T10:23:19;5.10;99.90
22956;DHT22;40888;48.148;11.526;2024-03-06T10:25:47;5.10;99.90
22956;DHT22;40888;48.148;11.526;2024-03-06T10:28:20;5.10;99.90
22956;DHT22;40888;48.148;11.526;2024-03-06T10:30:46;5.10;99.90
22956;DHT22;40888;48.148;11.526;2024-03-06T10:33:13;5.10;99.90
22956;DHT22;40888;48.148;11.526;2024-03-06T10:35:43;5.10;99.90
22956;DHT22;40888;48.148;11.526;2024-03-06T10:38:10;5.20;99.90
22956;DHT22;40888;48.148;11.526;2024-03-06T10:40:42;5.20;99.90
22956;DHT22;40888;48.148;11.526;2024-03-06T10:43:09;5.30;99.90
22956;DHT22;40888;48.148;11.526;2024-03-06T10:48:07;5.40;99.90
22956;DHT22;40888;48.148;11.526;2024-03-06T10:50:33;5.30;99.90
22956;DHT22;40888;48.148;11.526;2024-03-06T10:53:03;5.30;99.90
22956;DHT22;40888;48.148;11.526;2024-03-06T10:55:30;5.20;99.90
22956;DHT22;40888;48.148;11.526;2024-03-06T10:58:00;5.20;99.90
22956;DHT22;40888;48.148;11.526;2024-03-06T11:00:26;5.30;99.90
22956;DHT22;40888;48.148;11.526;2024-03-06T11:02:55;5.40;99.90
22956;DHT22;40888;48.148;11.526;2024-03-06T11:05:21;5.30;99.90
22956;DHT22;40888;48.148;11.526;2024-03-06T11:07:47;5.40;99.90
22956;DHT22;40888;48.148;11.526;2024-03-06T11:10:12;5.40;99.90
22956;DHT22;40888;48.148;11.526;2024-03-06T11:12:42;5.50;99.90
22956;DHT22;40888;48.148;11.526;2024-03-06T11:17:36;5.50;99.90
22956;DHT22;40888;48.148;11.526;2024-03-06T11:28:18;5.50;99.90
22956;DHT22;40888;48.148;11.526;2024-03-06T11:31:10;5.50;99.90
22956;DHT22;40888;48.148;11.526;2024-03-06T11:33:46;5.40;99.90
22956;DHT22;40888;48.148;11.526;2024-03-06T11:39:00;5.50;99.90
22956;DHT22;40888;48.148;11.526;2024-03-06T11:41:49;5.60;99.90
22956;DHT22;40888;48.148;11.526;2024-03-06T11:44:21;5.60;99.90
22956;DHT22;40888;48.148;11.526;2024-03-06T11:46:50;5.60;99.90
22956;DHT22;40888;48.148;11.526;2024-03-06T11:51:49;5.60;99.90
22956;DHT22;40888;48.148;11.526;2024-03-06T11:54:15;5.60;99.90
22956;DHT22;40888;48.148;11.526;2024-03-06T11:56:44;5.60;99.90
22956;DHT22;40888;48.148;11.526;2024-03-06T11:59:10;5.60;99.90
22956;DHT22;40888;48.148;11.526;2024-03-06T12:01:40;5.60;99.90
22956;DHT22;40888;48.148;11.526;2024-03-06T12:12:42;5.70;99.90
22956;DHT22;40888;48.148;11.526;2024-03-06T12:15:11;5.50;99.90
22956;DHT22;40888;48.148;11.526;2024-03-06T12:17:46;5.50;99.90
22956;DHT22;40888;48.148;11.526;2024-03-06T12:20:13;5.60;99.90
22956;DHT22;40888;48.148;11.526;2024-03-06T12:22:59;5.60;99.90
22956;DHT22;40888;48.148;11.526;2024-03-06T12:25:26;5.60;99.90
22956;DHT22;40888;48.148;11.526;2024-03-06T12:27:53;5.70;99.90
22956;DHT22;40888;48.148;11.526;2024-03-06T12:30:21;5.70;99.90
22956;DHT22;40888;48.148;11.526;2024-03-06T12:33:01;5.70;99.90
22956;DHT22;40888;48.148;11.526;2024-03-06T12:35:30;5.70;99.90
22956;DHT22;40888;48.148;11.526;2024-03-06T12:37:56;5.70;99.90
22956;DHT22;40888;48.148;11.526;2024-03-06T12:40:22;5.80;99.90
22956;DHT22;40888;48.148;11.526;2024-03-06T12:42:48;5.70;99.90
22956;DHT22;40888;48.148;11.526;2024-03-06T12:45:15;5.80;99.90
22956;DHT22;40888;48.148;11.526;2024-03-06T12:47:46;5.90;99.90
22956;DHT22;40888;48.148;11.526;2024-03-06T12:50:14;5.80;99.90
22956;DHT22;40888;48.148;11.526;2024-03-06T12:52:40;5.80;99.90
22956;DHT22;40888;48.148;11.526;2024-03-06T12:55:07;5.70;99.90
22956;DHT22;40888;48.148;11.526;2024-03-06T12:57:33;5.70;99.90
22956;DHT22;40888;48.148;11.526;2024-03-06T12:59:59;5.80;99.90
22956;DHT22;40888;48.148;11.526;2024-03-06T13:02:25;5.60;99.90
22956;DHT22;40888;48.148;11.526;2024-03-06T13:04:51;5.60;99.90
22956;DHT22;40888;48.148;11.526;2024-03-06T13:07:17;5.60;99.90
22956;DHT22;40888;48.148;11.526;2024-03-06T13:09:43;5.60;99.90
22956;DHT22;40888;48.148;11.526;2024-03-06T13:12:09;5.60;99.90
22956;DHT22;40888;48.148;11.526;2024-03-06T13:14:35;5.60;99.90
22956;DHT22;40888;48.148;11.526;2024-03-06T13:17:01;5.60;99.90
22956;DHT22;40888;48.148;11.526;2024-03-06T13:19:28;5.70;99.90
22956;DHT22;40888;48.148;11.526;2024-03-06T13:21:53;5.80;99.90
22956;DHT22;40888;48.148;11.526;2024-03-06T13:24:19;5.80;99.90
22956;DHT22;40888;48.148;11.526;2024-03-06T13:26:46;5.70;99.90
22956;DHT22;40888;48.148;11.526;2024-03-06T13:29:12;5.80;99.90
22956;DHT22;40888;48.148;11.526;2024-03-06T13:31:38;5.70;99.90
22956;DHT22;40888;48.148;11.526;2024-03-06T13:34:04;5.70;99.90
22956;DHT22;40888;48.148;11.526;2024-03-06T13:36:30;5.60;99.90
22956;DHT22;40888;48.148;11.526;2024-03-06T13:38:56;5.50;99.90
22956;DHT22;40888;48.148;11.526;2024-03-06T13:41:22;5.50;99.90
22956;DHT22;40888;48.148;11.526;2024-03-06T13:43:48;5.40;99.90
22956;DHT22;40888;48.148;11.526;2024-03-06T13:46:14;5.40;99.90
22956;DHT22;40888;48.148;11.526;2024-03-06T13:48:40;5.40;99.90
22956;DHT22;40888;48.148;11.526;2024-03-06T13:51:05;5.40;99.90
22956;DHT22;40888;48.148;11.526;2024-03-06T13:53:31;5.40;99.90
22956;DHT22;40888;48.148;11.526;2024-03-06T13:55:57;5.40;99.90
22956;DHT22;40888;48.148;11.526;2024-03-06T13:58:23;5.50;99.90
22956;DHT22;40888;48.148;11.526;2024-03-06T14:00:49;5.50;99.90
22956;DHT22;40888;48.148;11.526;2024-03-06T14:03:14;5.60;99.90
22956;DHT22;40888;48.148;11.526;2024-03-06T14:05:40;5.60;99.90
22956;DHT22;40888;48.148;11.526;2024-03-06T14:08:06;5.60;99.90
22956;DHT22;40888;48.148;11.526;2024-03-06T14:10:31;5.70;99.90
22956;DHT22;40888;48.148;11.526;2024-03-06T14:13:01;5.70;99.90
22956;DHT22;40888;48.148;11.526;2024-03-06T14:15:26;5.60;99.90
22956;DHT22;40888;48.148;11.526;2024-03-06T14:17:53;5.50;99.90
22956;DHT22;40888;48.148;11.526;2024-03-06T14:20:22;5.60;99.90
22956;DHT22;40888;48.148;11.526;2024-03-06T14:22:48;5.60;99.90
22956;DHT22;40888;48.148;11.526;2024-03-06T14:25:14;5.60;99.90
22956;DHT22;40888;48.148;11.526;2024-03-06T14:27:40;5.70;99.90
22956;DHT22;40888;48.148;11.526;2024-03-06T14:30:06;5.50;99.90
22956;DHT22;40888;48.148;11.526;2024-03-06T14:32:32;5.40;99.90
22956;DHT22;40888;48.148;11.526;2024-03-06T14:34:58;5.40;99.90
22956;DHT22;40888;48.148;11.526;2024-03-06T14:37:24;5.40;99.90
22956;DHT22;40888;48.148;11.526;2024-03-06T14:39:49;5.50;99.90
22956;DHT22;40888;48.148;11.526;2024-03-06T14:42:16;5.40;99.90
22956;DHT22;40888;48.148;11.526;2024-03-06T14:44:42;5.40;99.90
22956;DHT22;40888;48.148;11.526;2024-03-06T14:47:12;5.30;99.90
22956;DHT22;40888;48.148;11.526;2024-03-06T14:49:39;5.30;99.90
22956;DHT22;40888;48.148;11.526;2024-03-06T14:52:05;5.40;99.90
22956;DHT22;40888;48.148;11.526;2024-03-06T14:54:32;5.30;99.90
22956;DHT22;40888;48.148;11.526;2024-03-06T14:56:57;5.40;99.90
22956;DHT22;40888;48.148;11.526;2024-03-06T14:59:23;5.40;99.90
22956;DHT22;40888;48.148;11.526;2024-03-06T15:01:49;5.50;99.90
22956;DHT22;40888;48.148;11.526;2024-03-06T15:04:15;5.50;99.90
22956;DHT22;40888;48.148;11.526;2024-03-06T15:06:41;5.50;99.90
22956;DHT22;40888;48.148;11.526;2024-03-06T15:09:07;5.50;99.90
22956;DHT22;40888;48.148;11.526;2024-03-06T15:11:37;5.50;99.90
22956;DHT22;40888;48.148;11.526;2024-03-06T15:14:03;5.50;99.90
22956;DHT22;40888;48.148;11.526;2024-03-06T15:16:30;5.50;99.90
22956;DHT22;40888;48.148;11.526;2024-03-06T15:18:56;5.50;99.90
22956;DHT22;40888;48.148;11.526;2024-03-06T15:21:23;5.60;99.90
22956;DHT22;40888;48.148;11.526;2024-03-06T15:23:49;5.50;99.90
22956;DHT22;40888;48.148;11.526;2024-03-06T15:26:17;5.50;99.90
22956;DHT22;40888;48.148;11.526;2024-03-06T15:28:42;5.60;99.90
22956;DHT22;40888;48.148;11.526;2024-03-06T15:31:08;5.60;99.90
22956;DHT22;40888;48.148;11.526;2024-03-06T15:33:35;5.60;99.90
22956;DHT22;40888;48.148;11.526;2024-03-06T15:36:00;5.70;99.90
22956;DHT22;40888;48.148;11.526;2024-03-06T15:38:26;5.80;99.90
22956;DHT22;40888;48.148;11.526;2024-03-06T15:40:52;5.80;99.90
22956;DHT22;40888;48.148;11.526;2024-03-06T15:43:18;5.70;99.90
22956;DHT22;40888;48.148;11.526;2024-03-06T15:45:45;5.60;99.90
22956;DHT22;40888;48.148;11.526;2024-03-06T15:48:10;5.60;99.90
22956;DHT22;40888;48.148;11.526;2024-03-06T15:50:40;5.60;99.90
22956;DHT22;40888;48.148;11.526;2024-03-06T15:53:06;5.50;99.90